createdAt,value
2022-08-28T07:50:06.079Z,99.90
2022-08-28T07:52:54.333Z,99.90
2022-08-28T08:02:41.136Z,99.90
2022-08-28T08:06:13.741Z,99.90
2022-08-28T08:15:35.608Z,99.90
2022-08-28T08:18:23.518Z,99.90
2022-08-28T08:21:14.161Z,99.90
2022-08-28T08:24:19.728Z,99.90
2022-08-28T08:27:09.945Z,99.90
2022-08-28T08:29:57.582Z,99.90
2022-08-28T08:32:48.121Z,99.90
2022-08-28T08:35:35.745Z,99.90
2022-08-28T08:38:24.536Z,99.90
2022-08-28T08:41:19.873Z,99.90
2022-08-28T08:44:16.614Z,99.90
2022-08-28T08:47:14.767Z,99.90
2022-08-28T08:50:07.573Z,99.90
2022-08-28T08:53:20.182Z,99.90
2022-08-28T08:56:15.902Z,99.90
2022-08-28T08:59:07.695Z,99.90
2022-08-28T09:02:04.437Z,99.90
2022-08-28T09:04:58.305Z,99.90
2022-08-28T09:08:01.542Z,99.90
2022-08-28T09:11:04.217Z,99.90
2022-08-28T09:13:59.746Z,99.90
2022-08-28T09:16:48.033Z,99.90
2022-08-28T09:19:37.485Z,99.90
2022-08-28T09:22:25.511Z,99.90
2022-08-28T09:25:54.782Z,99.90
2022-08-28T09:28:50.058Z,99.90
2022-08-28T09:31:41.813Z,99.90
2022-08-28T09:34:38.657Z,99.90
2022-08-28T09:37:28.510Z,99.90
2022-08-28T09:40:23.567Z,99.90
2022-08-28T09:43:27.002Z,99.90
2022-08-28T09:46:23.743Z,99.90
2022-08-28T09:49:13.618Z,99.90
2022-08-28T09:52:25.171Z,99.90
2022-08-28T09:55:22.219Z,99.90
2022-08-28T09:58:12.140Z,99.90
2022-08-28T10:05:44.015Z,99.90
2022-08-28T10:16:09.733Z,99.90
2022-08-28T10:19:13.013Z,99.90
2022-08-28T10:22:10.977Z,99.90
2022-08-28T10:25:09.977Z,99.90
2022-08-28T10:28:26.161Z,99.90
2022-08-28T10:31:28.359Z,99.90
2022-08-28T10:34:38.893Z,99.90
2022-08-28T10:37:36.193Z,99.90
2022-08-28T10:40:28.348Z,99.90
2022-08-28T10:43:22.597Z,99.90
2022-08-28T10:46:17.342Z,99.90
2022-08-28T10:49:24.111Z,99.90
2022-08-28T10:52:17.718Z,99.90
2022-08-28T10:55:10.958Z,99.90
2022-08-28T10:58:03.401Z,99.90
2022-08-28T11:00:54.159Z,99.90
2022-08-28T11:03:45.517Z,99.90
2022-08-28T11:06:38.480Z,99.20
2022-08-28T11:09:36.143Z,99.20
2022-08-28T11:12:42.410Z,99.30
2022-08-28T11:15:51.606Z,99.10
2022-08-28T11:19:07.650Z,98.70
2022-08-28T11:22:12.624Z,98.60
2022-08-28T11:25:26.497Z,97.30
2022-08-28T11:28:47.204Z,97.70
2022-08-28T11:31:44.932Z,98.20
2022-08-28T11:34:59.223Z,97.90
2022-08-28T11:37:51.267Z,98.30
2022-08-28T11:40:57.779Z,98.40
2022-08-28T11:43:47.027Z,98.90
2022-08-28T11:46:38.547Z,98.20
2022-08-28T11:49:46.151Z,97.80
2022-08-28T11:53:00.279Z,97.70
2022-08-28T11:56:20.515Z,97.90
2022-08-28T12:00:10.324Z,97.00
2022-08-28T12:03:12.936Z,97.30
2022-08-28T12:06:03.319Z,96.50
2022-08-28T12:09:07.460Z,96.90
2022-08-28T12:12:04.528Z,96.30
2022-08-28T12:15:03.408Z,95.70
2022-08-28T12:17:53.266Z,96.00
2022-08-28T12:20:58.632Z,95.50
2022-08-28T12:23:59.060Z,96.00
2022-08-28T12:26:51.291Z,95.90
2022-08-28T12:29:47.636Z,96.10
2022-08-28T12:32:49.940Z,96.00
2022-08-28T12:35:38.952Z,96.30
2022-08-28T12:38:29.741Z,96.20
2022-08-28T12:41:18.412Z,96.80
2022-08-28T12:44:11.433Z,96.80
2022-08-28T12:46:59.145Z,96.00
2022-08-28T12:49:47.164Z,96.00
2022-08-28T12:52:34.341Z,95.50
2022-08-28T12:55:24.586Z,96.00
2022-08-28T12:58:14.325Z,96.10
2022-08-28T13:01:06.852Z,95.70
2022-08-28T13:03:58.650Z,95.40
2022-08-28T13:06:47.769Z,95.50
2022-08-28T13:09:35.406Z,95.70
2022-08-28T13:12:37.880Z,95.70
2022-08-28T13:15:53.605Z,95.60
2022-08-28T13:18:48.958Z,96.00
2022-08-28T13:21:37.511Z,96.50
2022-08-28T13:24:39.154Z,95.80
2022-08-28T13:27:26.686Z,95.80
2022-08-28T13:30:23.155Z,95.80
2022-08-28T13:33:21.026Z,95.50
2022-08-28T13:36:21.127Z,96.00
2022-08-28T13:39:08.953Z,95.80
2022-08-28T13:44:55.971Z,96.30
2022-08-28T13:47:46.158Z,96.00
2022-08-28T13:50:33.355Z,95.50
2022-08-28T13:53:20.552Z,95.80
2022-08-28T13:56:07.799Z,96.40
2022-08-28T13:58:57.992Z,96.70
2022-08-28T14:02:05.023Z,97.00
2022-08-28T14:04:52.643Z,96.00
2022-08-28T14:07:39.746Z,95.40
2022-08-28T14:10:27.226Z,95.90
2022-08-28T14:13:14.917Z,95.70
2022-08-28T14:16:04.679Z,95.90
2022-08-28T14:18:52.624Z,96.20
2022-08-28T14:21:40.847Z,96.30
2022-08-28T14:24:30.668Z,96.40
2022-08-28T14:27:17.827Z,96.50
2022-08-28T14:30:07.282Z,96.60
2022-08-28T14:32:54.307Z,97.00
2022-08-28T14:35:42.527Z,94.90
2022-08-28T14:38:29.539Z,94.70
2022-08-28T14:41:16.967Z,95.30
2022-08-28T14:44:04.857Z,95.30
2022-08-28T14:46:56.963Z,95.90
2022-08-28T14:49:45.216Z,96.50
2022-08-28T14:52:33.599Z,95.60
2022-08-28T14:55:21.156Z,95.30
2022-08-28T14:58:08.640Z,94.80
2022-08-28T15:00:56.223Z,95.00
2022-08-28T15:03:43.335Z,95.70
2022-08-28T15:06:30.933Z,95.20
2022-08-28T15:09:27.888Z,95.20
2022-08-28T15:12:16.673Z,95.80
2022-08-28T15:15:04.506Z,95.90
2022-08-28T15:17:51.582Z,96.70
2022-08-28T15:20:41.619Z,96.80
2022-08-28T15:23:28.798Z,97.10
2022-08-28T15:26:16.910Z,96.60
2022-08-28T15:29:06.231Z,96.70
2022-08-28T15:31:53.693Z,96.80
2022-08-28T15:34:41.490Z,96.70
2022-08-28T15:37:28.954Z,95.70
2022-08-28T15:40:37.190Z,95.30
2022-08-28T15:43:25.030Z,95.20
2022-08-28T15:46:12.615Z,95.00
2022-08-28T15:49:00.722Z,94.70
2022-08-28T15:51:49.097Z,95.00
2022-08-28T15:54:37.034Z,94.90
2022-08-28T15:57:24.118Z,95.00
2022-08-28T16:00:13.630Z,95.20
2022-08-28T16:03:00.815Z,95.90
2022-08-28T16:05:47.871Z,95.50
2022-08-28T16:08:34.967Z,95.20
2022-08-28T16:11:22.947Z,95.10
2022-08-28T16:14:10.447Z,95.00
2022-08-28T16:16:58.412Z,95.20
2022-08-28T16:19:45.552Z,95.20
2022-08-28T16:22:32.692Z,95.10
2022-08-28T16:25:19.840Z,94.40
2022-08-28T16:28:07.545Z,94.20
2022-08-28T16:30:54.629Z,94.50
2022-08-28T16:33:42.444Z,94.40
2022-08-28T16:36:31.201Z,94.40
2022-08-28T16:39:18.269Z,94.30
2022-08-28T16:42:05.656Z,94.90
2022-08-28T16:44:58.209Z,95.20
2022-08-28T16:47:46.510Z,95.70
2022-08-28T16:50:34.801Z,95.40
2022-08-28T16:53:24.450Z,95.60
2022-08-28T16:56:17.898Z,95.50
2022-08-28T16:59:10.123Z,95.80
2022-08-28T17:01:59.254Z,96.00
2022-08-28T17:04:47.250Z,96.00
2022-08-28T17:07:35.953Z,96.40
2022-08-28T17:10:24.403Z,96.50
2022-08-28T17:13:11.521Z,96.60
2022-08-28T17:15:58.601Z,96.50
2022-08-28T17:18:47.401Z,96.30
2022-08-28T17:21:56.436Z,96.30
2022-08-28T17:24:47.428Z,96.00
2022-08-28T17:27:38.698Z,95.80
2022-08-28T17:30:29.088Z,95.70
2022-08-28T17:33:31.697Z,95.80
2022-08-28T17:36:33.367Z,96.60
2022-08-28T17:39:21.357Z,96.40
2022-08-28T17:42:09.121Z,96.70
2022-08-28T17:44:56.190Z,96.90
2022-08-28T17:47:43.301Z,96.90
2022-08-28T17:50:30.483Z,97.10
2022-08-28T17:53:17.920Z,97.10
2022-08-28T17:56:08.736Z,97.30
2022-08-28T17:58:57.136Z,97.10
2022-08-28T18:01:45.613Z,97.20
2022-08-28T18:04:32.737Z,97.40
2022-08-28T18:07:20.140Z,97.40
2022-08-28T18:10:10.957Z,97.60
2022-08-28T18:12:58.104Z,97.60
2022-08-28T18:15:46.919Z,97.60
2022-08-28T18:18:43.714Z,97.70
2022-08-28T18:21:30.868Z,97.70
2022-08-28T18:24:17.916Z,98.00
2022-08-28T18:27:06.834Z,97.90
2022-08-28T18:29:53.992Z,98.00
2022-08-28T18:32:41.721Z,98.20
2022-08-28T18:35:32.130Z,98.50
2022-08-28T18:38:21.893Z,98.40
2022-08-28T18:41:09.779Z,98.50
2022-08-28T18:43:56.825Z,98.60
2022-08-28T18:46:45.453Z,98.90
2022-08-28T18:49:33.338Z,98.90
2022-08-28T18:52:20.577Z,99.00
2022-08-28T18:55:09.925Z,99.10
2022-08-28T18:57:58.043Z,99.40
2022-08-28T19:00:46.154Z,99.40
2022-08-28T19:03:33.387Z,99.60
2022-08-28T19:06:21.529Z,99.60
2022-08-28T19:09:08.593Z,99.80
2022-08-28T19:11:56.494Z,99.90
2022-08-28T19:14:43.538Z,99.90
2022-08-28T19:17:30.634Z,99.90
2022-08-28T19:20:22.094Z,99.90
2022-08-28T19:23:13.261Z,99.90
2022-08-28T19:26:05.918Z,99.90
2022-08-28T19:28:53.235Z,99.90
2022-08-28T19:31:40.399Z,99.90
2022-08-28T19:34:29.018Z,99.90
2022-08-28T19:37:16.127Z,99.90
2022-08-28T19:40:05.895Z,99.90
2022-08-28T19:42:53.391Z,99.90
2022-08-28T19:45:42.649Z,99.90
2022-08-28T19:48:29.963Z,99.90
2022-08-28T19:51:28.503Z,99.90
2022-08-28T19:54:16.575Z,99.90
2022-08-28T19:57:06.556Z,99.90
2022-08-28T19:59:54.184Z,99.90
2022-08-28T20:02:41.359Z,99.90
2022-08-28T20:05:31.843Z,99.90
2022-08-28T20:08:20.583Z,99.90
2022-08-28T20:11:10.307Z,99.90
2022-08-28T20:14:04.232Z,99.90
2022-08-28T20:16:53.704Z,99.90
2022-08-28T20:19:41.579Z,99.90
2022-08-28T20:22:28.927Z,99.90
2022-08-28T20:25:21.467Z,99.90
2022-08-28T20:28:14.080Z,99.90
2022-08-28T20:31:09.386Z,99.90
2022-08-28T20:34:02.090Z,99.90
2022-08-28T20:36:49.825Z,99.90
2022-08-28T20:39:40.813Z,99.90
2022-08-28T20:42:31.752Z,99.90
2022-08-28T20:45:24.424Z,99.90
2022-08-28T20:48:31.083Z,99.90
2022-08-28T20:55:29.377Z,99.90
2022-08-28T20:58:17.068Z,99.90
2022-08-28T21:01:05.058Z,99.90
2022-08-28T21:04:29.771Z,99.90
2022-08-28T21:07:20.346Z,99.90
2022-08-28T21:10:08.363Z,99.90
2022-08-28T21:12:58.181Z,99.90
2022-08-28T21:15:45.421Z,99.90
2022-08-28T21:18:32.749Z,99.90
2022-08-28T21:21:26.205Z,99.90
2022-08-28T21:24:16.769Z,99.90
2022-08-28T21:27:06.905Z,99.90
2022-08-28T21:29:59.368Z,99.90
2022-08-28T21:32:49.874Z,99.90
2022-08-28T21:35:40.349Z,99.90
2022-08-28T21:38:27.471Z,99.90
2022-08-28T21:41:17.050Z,99.90
2022-08-28T21:44:05.513Z,99.90
2022-08-28T21:46:54.607Z,99.90
2022-08-28T21:53:05.402Z,99.90
2022-08-28T21:59:01.831Z,99.90
2022-08-28T22:02:14.875Z,99.90
2022-08-28T22:05:24.626Z,99.90
2022-08-28T22:08:19.739Z,99.90
2022-08-28T22:11:27.699Z,99.90
2022-08-28T22:14:37.730Z,99.90
2022-08-28T22:17:39.298Z,99.90
2022-08-28T22:21:12.827Z,99.90
2022-08-28T22:24:26.198Z,99.90
2022-08-28T22:36:37.566Z,99.90
2022-08-28T22:39:52.746Z,99.90
2022-08-28T22:43:03.553Z,99.90
2022-08-28T22:46:19.754Z,99.90
2022-08-28T22:49:46.143Z,99.90
2022-08-28T22:52:56.344Z,99.90
2022-08-28T22:56:08.654Z,99.90
2022-08-28T22:59:18.433Z,99.90
2022-08-28T23:02:13.441Z,99.90
2022-08-28T23:05:28.943Z,99.90
2022-08-28T23:08:18.880Z,99.90
2022-08-28T23:11:29.423Z,99.90
2022-08-28T23:14:25.292Z,99.90
2022-08-28T23:17:20.932Z,99.90
2022-08-28T23:20:38.731Z,99.90
2022-08-28T23:23:39.480Z,99.90
2022-08-28T23:26:49.017Z,99.90
2022-08-28T23:29:42.840Z,99.90
2022-08-28T23:32:36.795Z,99.90
2022-08-28T23:35:48.568Z,99.90
2022-08-28T23:39:11.580Z,99.90
2022-08-28T23:46:06.881Z,99.90
2022-08-28T23:48:58.628Z,99.90
2022-08-28T23:52:12.267Z,99.90
2022-08-28T23:55:04.313Z,99.90
2022-08-28T23:58:16.613Z,99.90
